createdAt,value
2018-07-17T00:01:58.004Z,6.80
2018-07-17T00:04:26.426Z,5.07
2018-07-17T00:06:54.934Z,3.30
2018-07-17T00:09:23.348Z,4.20
2018-07-17T00:11:51.975Z,3.37
2018-07-17T00:14:20.473Z,3.70
2018-07-17T00:16:48.982Z,5.40
2018-07-17T00:19:17.429Z,3.20
2018-07-17T00:21:45.959Z,5.70
2018-07-17T00:24:14.378Z,5.97
2018-07-17T00:26:42.772Z,3.10
2018-07-17T00:29:11.277Z,3.03
2018-07-17T00:31:39.698Z,4.27
2018-07-17T00:34:08.021Z,5.37
2018-07-17T00:36:36.619Z,4.53
2018-07-17T00:39:07.923Z,3.83
2018-07-17T00:41:36.090Z,3.63
2018-07-17T00:44:04.557Z,3.80
2018-07-17T00:46:33.012Z,4.07
2018-07-17T00:49:01.481Z,3.63
2018-07-17T00:51:29.896Z,3.40
2018-07-17T00:53:59.552Z,4.50
2018-07-17T00:56:28.988Z,4.17
2018-07-17T00:58:57.415Z,4.63
2018-07-17T01:01:31.260Z,6.47
2018-07-17T01:04:04.998Z,3.50
2018-07-17T01:06:38.770Z,4.17
2018-07-17T01:09:13.319Z,3.70
2018-07-17T01:11:47.132Z,5.80
2018-07-17T01:14:22.336Z,5.50
2018-07-17T01:16:50.797Z,4.50
2018-07-17T01:19:19.243Z,4.20
2018-07-17T01:21:47.953Z,6.17
2018-07-17T01:24:17.057Z,8.23
2018-07-17T01:26:46.531Z,5.37
2018-07-17T01:29:15.288Z,5.80
2018-07-17T01:31:43.724Z,4.63
2018-07-17T01:34:12.190Z,3.40
2018-07-17T01:36:40.600Z,5.37
2018-07-17T01:39:09.690Z,4.40
2018-07-17T01:41:38.129Z,5.00
2018-07-17T01:44:06.769Z,4.37
2018-07-17T01:46:35.228Z,3.57
2018-07-17T01:49:03.666Z,4.63
2018-07-17T01:51:32.166Z,5.83
2018-07-17T01:54:00.580Z,5.37
2018-07-17T01:56:29.032Z,3.70
2018-07-17T01:58:57.618Z,5.10
2018-07-17T02:01:26.067Z,5.57
2018-07-17T02:03:54.573Z,4.27
2018-07-17T02:06:23.108Z,4.60
2018-07-17T02:08:51.748Z,4.10
2018-07-17T02:11:20.447Z,4.13
2018-07-17T02:13:48.887Z,3.77
2018-07-17T02:16:17.320Z,3.93
2018-07-17T02:18:45.731Z,5.63
2018-07-17T02:21:14.148Z,4.27
2018-07-17T02:23:42.805Z,3.80
2018-07-17T02:26:11.629Z,6.50
2018-07-17T02:28:40.196Z,3.37
2018-07-17T02:31:09.611Z,3.87
2018-07-17T02:33:38.252Z,4.57
2018-07-17T02:36:06.676Z,4.07
2018-07-17T02:38:35.093Z,4.23
2018-07-17T02:41:03.642Z,5.77
2018-07-17T02:43:32.100Z,3.77
2018-07-17T02:46:00.908Z,3.53
2018-07-17T02:48:29.431Z,8.07
2018-07-17T02:50:57.880Z,3.97
2018-07-17T02:53:26.343Z,5.23
2018-07-17T02:55:54.764Z,6.10
2018-07-17T02:58:23.414Z,4.00
2018-07-17T03:00:51.708Z,5.23
2018-07-17T03:03:20.743Z,3.93
2018-07-17T03:05:49.871Z,4.13
2018-07-17T03:08:18.473Z,4.67
2018-07-17T03:10:47.019Z,4.77
2018-07-17T03:13:15.826Z,5.97
2018-07-17T03:15:44.744Z,6.70
2018-07-17T03:18:13.209Z,4.30
2018-07-17T03:20:41.627Z,4.80
2018-07-17T03:23:10.088Z,8.50
2018-07-17T03:25:38.547Z,6.60
2018-07-17T03:28:07.413Z,5.43
2018-07-17T03:30:35.989Z,9.90
2018-07-17T03:33:04.500Z,3.83
2018-07-17T03:35:32.969Z,5.93
2018-07-17T03:38:01.131Z,3.97
2018-07-17T03:40:29.728Z,4.00
2018-07-17T03:42:58.288Z,8.20
2018-07-17T03:45:26.709Z,4.17
2018-07-17T03:47:55.436Z,4.10
2018-07-17T03:50:23.958Z,4.80
2018-07-17T03:52:52.412Z,3.53
2018-07-17T03:55:20.830Z,6.03
2018-07-17T03:57:49.282Z,4.47
2018-07-17T04:00:17.702Z,4.27
2018-07-17T04:02:46.251Z,3.53
2018-07-17T04:05:14.863Z,3.47
2018-07-17T04:07:43.457Z,4.70
2018-07-17T04:10:11.946Z,5.37
2018-07-17T04:12:40.631Z,4.20
2018-07-17T04:15:09.158Z,4.53
2018-07-17T04:17:37.744Z,5.53
2018-07-17T04:20:06.411Z,5.43
2018-07-17T04:22:34.845Z,5.80
2018-07-17T04:25:03.378Z,6.27
2018-07-17T04:27:31.500Z,4.23
2018-07-17T04:30:00.151Z,5.10
2018-07-17T04:32:28.797Z,5.23
2018-07-17T04:34:57.230Z,4.00
2018-07-17T04:37:25.845Z,6.43
2018-07-17T04:39:54.472Z,4.97
2018-07-17T04:42:22.983Z,4.53
2018-07-17T04:44:51.452Z,7.63
2018-07-17T04:47:20.252Z,4.73
2018-07-17T04:49:48.811Z,5.03
2018-07-17T04:52:17.924Z,4.87
2018-07-17T04:54:46.751Z,5.37
2018-07-17T04:57:16.071Z,5.57
2018-07-17T04:59:44.621Z,7.10
2018-07-17T05:02:14.570Z,5.83
2018-07-17T05:04:43.081Z,6.27
2018-07-17T05:07:11.529Z,5.27
2018-07-17T05:09:40.128Z,4.70
2018-07-17T05:12:09.032Z,6.10
2018-07-17T05:14:37.567Z,5.67
2018-07-17T05:17:06.494Z,7.17
2018-07-17T05:19:34.984Z,6.40
2018-07-17T05:22:03.834Z,6.23
2018-07-17T05:24:32.502Z,5.57
2018-07-17T05:27:00.938Z,7.07
2018-07-17T05:29:29.351Z,7.27
2018-07-17T05:31:57.944Z,15.10
2018-07-17T05:34:26.412Z,5.33
2018-07-17T05:36:54.949Z,8.70
2018-07-17T05:39:23.424Z,5.73
2018-07-17T05:41:52.157Z,8.10
2018-07-17T05:44:21.145Z,4.97
2018-07-17T05:46:49.630Z,8.37
2018-07-17T05:49:18.060Z,8.90
2018-07-17T05:51:46.835Z,9.73
2018-07-17T05:54:15.435Z,5.60
2018-07-17T05:56:44.052Z,13.40
2018-07-17T05:59:12.874Z,7.10
2018-07-17T06:01:41.623Z,8.60
2018-07-17T06:04:10.652Z,8.23
2018-07-17T06:06:39.634Z,7.10
2018-07-17T06:09:10.042Z,8.73
2018-07-17T06:11:39.557Z,7.67
2018-07-17T06:14:08.381Z,11.18
2018-07-17T06:16:37.196Z,8.95
2018-07-17T06:19:06.282Z,7.90
2018-07-17T06:21:34.770Z,9.78
2018-07-17T06:24:03.498Z,7.08
2018-07-17T06:26:32.373Z,10.80
2018-07-17T06:29:01.082Z,8.00
2018-07-17T06:31:29.192Z,6.92
2018-07-17T06:33:57.660Z,8.53
2018-07-17T06:36:26.176Z,7.08
2018-07-17T06:38:54.663Z,8.05
2018-07-17T06:41:23.250Z,8.60
2018-07-17T06:43:51.708Z,7.53
2018-07-17T06:46:20.417Z,11.03
2018-07-17T06:48:49.204Z,9.38
2018-07-17T06:51:17.773Z,13.40
2018-07-17T06:53:46.369Z,7.72
2018-07-17T06:56:15.104Z,9.05
2018-07-17T06:58:43.601Z,9.60
2018-07-17T07:01:12.450Z,10.40
2018-07-17T07:03:41.312Z,11.88
2018-07-17T07:06:10.652Z,7.58
2018-07-17T07:08:39.229Z,11.00
2018-07-17T07:11:07.693Z,8.33
2018-07-17T07:13:36.092Z,9.87
2018-07-17T07:16:04.851Z,12.07
2018-07-17T07:18:34.112Z,11.63
2018-07-17T07:21:03.145Z,13.27
2018-07-17T07:23:31.713Z,11.90
2018-07-17T07:26:00.323Z,11.37
2018-07-17T07:28:29.459Z,11.27
2018-07-17T07:30:58.080Z,13.23
2018-07-17T07:33:27.062Z,8.80
2018-07-17T07:35:55.820Z,9.50
2018-07-17T07:38:24.289Z,9.67
2018-07-17T07:40:52.406Z,11.60
2018-07-17T07:43:21.013Z,10.17
2018-07-17T07:45:49.596Z,10.73
2018-07-17T07:48:19.549Z,8.47
2018-07-17T07:50:48.477Z,8.70
2018-07-17T07:53:16.990Z,8.57
2018-07-17T07:55:46.432Z,11.03
2018-07-17T07:58:14.924Z,11.07
2018-07-17T08:00:43.409Z,15.40
2018-07-17T08:03:11.921Z,9.27
2018-07-17T08:05:40.601Z,8.30
2018-07-17T08:08:09.216Z,9.33
2018-07-17T08:10:38.046Z,9.93
2018-07-17T08:13:13.389Z,8.97
2018-07-17T08:18:10.305Z,12.57
2018-07-17T08:20:39.794Z,8.07
2018-07-17T08:23:08.608Z,9.33
2018-07-17T08:25:37.610Z,8.30
2018-07-17T08:28:06.654Z,9.15
2018-07-17T08:30:35.624Z,8.95
2018-07-17T08:33:04.773Z,8.45
2018-07-17T08:35:33.513Z,8.45
2018-07-17T08:38:02.928Z,10.65
2018-07-17T08:40:31.685Z,8.65
2018-07-17T08:43:00.317Z,8.48
2018-07-17T08:45:29.450Z,11.10
2018-07-17T08:47:58.072Z,8.28
2018-07-17T08:50:26.622Z,7.78
2018-07-17T08:52:55.190Z,10.43
2018-07-17T08:55:24.337Z,8.03
2018-07-17T08:57:52.828Z,10.08
2018-07-17T09:00:21.513Z,7.78
2018-07-17T09:02:50.189Z,7.62
2018-07-17T09:05:19.277Z,7.47
2018-07-17T09:07:48.442Z,8.20
2018-07-17T09:10:17.125Z,9.03
2018-07-17T09:12:45.936Z,9.85
2018-07-17T09:15:14.543Z,9.25
2018-07-17T09:17:43.268Z,9.45
2018-07-17T09:20:12.041Z,9.95
2018-07-17T09:22:40.825Z,10.60
2018-07-17T09:25:09.875Z,9.83
2018-07-17T09:27:38.308Z,9.65
2018-07-17T09:30:07.825Z,10.95
2018-07-17T09:32:36.538Z,11.18
2018-07-17T09:35:05.422Z,10.78
2018-07-17T09:37:34.255Z,14.30
2018-07-17T09:40:02.965Z,11.05
2018-07-17T09:42:31.431Z,10.23
2018-07-17T09:45:00.160Z,10.03
2018-07-17T09:47:28.634Z,10.93
2018-07-17T09:49:57.265Z,9.23
2018-07-17T09:52:25.955Z,8.98
2018-07-17T09:54:55.596Z,9.30
2018-07-17T09:57:24.905Z,8.63
2018-07-17T09:59:53.982Z,8.15
2018-07-17T10:02:28.663Z,6.35
2018-07-17T10:04:58.133Z,6.58
2018-07-17T10:07:27.073Z,9.05
2018-07-17T10:09:55.703Z,5.15
2018-07-17T10:12:25.313Z,5.50
2018-07-17T10:14:53.894Z,6.22
2018-07-17T10:17:23.102Z,4.72
2018-07-17T10:19:52.053Z,4.58
2018-07-17T10:22:20.850Z,4.72
2018-07-17T10:24:49.905Z,4.75
2018-07-17T10:27:19.027Z,4.55
2018-07-17T10:29:47.717Z,5.55
2018-07-17T10:32:16.510Z,4.15
2018-07-17T10:34:44.923Z,4.80
2018-07-17T10:37:13.593Z,4.90
2018-07-17T10:39:42.584Z,4.42
2018-07-17T10:42:11.069Z,4.40
2018-07-17T10:44:39.510Z,3.92
2018-07-17T10:47:14.485Z,5.12
2018-07-17T10:49:43.020Z,4.35
2018-07-17T10:52:11.502Z,3.90
2018-07-17T10:54:40.422Z,4.17
2018-07-17T10:57:09.081Z,3.55
2018-07-17T10:59:37.709Z,3.22
2018-07-17T11:02:06.318Z,3.27
2018-07-17T11:04:34.752Z,4.35
2018-07-17T11:07:03.220Z,3.83
2018-07-17T11:09:31.781Z,4.95
2018-07-17T11:12:00.487Z,5.65
2018-07-17T11:14:28.584Z,5.35
2018-07-17T11:16:57.047Z,2.47
2018-07-17T11:19:26.058Z,7.17
2018-07-17T11:21:54.676Z,2.98
2018-07-17T11:24:23.462Z,6.20
2018-07-17T11:26:52.379Z,7.45
2018-07-17T11:29:20.961Z,6.40
2018-07-17T11:31:50.021Z,5.10
2018-07-17T11:34:18.759Z,4.43
2018-07-17T11:36:47.421Z,3.70
2018-07-17T11:39:15.844Z,3.60
2018-07-17T11:41:44.289Z,3.00
2018-07-17T11:44:13.124Z,5.43
2018-07-17T11:46:41.604Z,2.93
2018-07-17T11:49:10.126Z,2.97
2018-07-17T11:51:38.443Z,5.13
2018-07-17T11:54:07.297Z,4.50
2018-07-17T11:56:35.912Z,5.83
2018-07-17T11:59:05.295Z,4.93
2018-07-17T12:01:34.088Z,3.67
2018-07-17T12:04:03.191Z,3.33
2018-07-17T12:06:32.123Z,2.80
2018-07-17T12:09:01.171Z,2.80
2018-07-17T12:11:29.776Z,3.43
2018-07-17T12:13:58.589Z,13.17
2018-07-17T12:16:28.141Z,7.70
2018-07-17T12:18:57.242Z,7.10
2018-07-17T12:21:25.771Z,7.67
2018-07-17T12:23:54.497Z,7.83
2018-07-17T12:26:22.957Z,7.20
2018-07-17T12:28:51.736Z,5.07
2018-07-17T12:31:20.184Z,6.23
2018-07-17T12:33:48.765Z,5.13
2018-07-17T12:36:18.105Z,5.77
2018-07-17T12:38:46.548Z,5.20
2018-07-17T12:41:15.485Z,6.33
2018-07-17T12:43:44.413Z,4.20
2018-07-17T12:46:13.445Z,2.27
2018-07-17T12:48:42.844Z,2.87
2018-07-17T12:51:11.653Z,5.27
2018-07-17T12:53:40.145Z,4.20
2018-07-17T12:56:08.732Z,2.50
2018-07-17T12:58:37.198Z,2.43
2018-07-17T13:01:05.950Z,4.33
2018-07-17T13:03:34.619Z,2.20
2018-07-17T13:06:03.102Z,4.03
2018-07-17T13:08:31.556Z,3.73
2018-07-17T13:11:00.045Z,7.07
2018-07-17T13:13:28.461Z,4.17
2018-07-17T13:15:57.349Z,3.47
2018-07-17T13:18:25.799Z,3.60
2018-07-17T13:20:54.258Z,3.80
2018-07-17T13:23:22.679Z,4.27
2018-07-17T13:25:51.141Z,4.57
2018-07-17T13:28:19.539Z,3.90
2018-07-17T13:30:47.989Z,2.83
2018-07-17T13:33:16.428Z,4.00
2018-07-17T13:35:44.873Z,4.37
2018-07-17T13:38:13.349Z,3.40
2018-07-17T13:40:41.797Z,5.30
2018-07-17T13:43:10.232Z,2.63
2018-07-17T13:45:38.720Z,3.37
2018-07-17T13:48:07.188Z,4.67
2018-07-17T13:50:35.351Z,3.63
2018-07-17T13:53:03.752Z,4.73
2018-07-17T13:55:32.201Z,3.70
2018-07-17T13:58:00.626Z,4.50
2018-07-17T14:00:29.060Z,5.87
2018-07-17T14:02:57.750Z,12.90
2018-07-17T14:05:26.218Z,3.93
2018-07-17T14:07:54.637Z,6.70
2018-07-17T14:10:23.083Z,3.20
2018-07-17T14:12:51.709Z,6.83
2018-07-17T14:15:20.133Z,2.50
2018-07-17T14:17:48.557Z,4.00
2018-07-17T14:20:16.984Z,2.73
2018-07-17T14:22:45.576Z,4.90
2018-07-17T14:25:14.082Z,4.00
2018-07-17T14:27:42.560Z,2.50
2018-07-17T14:30:11.062Z,5.07
2018-07-17T14:32:39.486Z,2.80
2018-07-17T14:35:07.640Z,2.73
2018-07-17T14:37:36.128Z,3.70
2018-07-17T14:40:04.986Z,4.23
2018-07-17T14:42:33.635Z,6.03
2018-07-17T14:45:02.703Z,3.87
2018-07-17T14:47:31.276Z,5.07
2018-07-17T14:49:59.859Z,6.10
2018-07-17T14:52:28.446Z,3.30
2018-07-17T14:54:57.175Z,2.33
2018-07-17T14:57:25.701Z,3.53
2018-07-17T14:59:54.288Z,2.50
2018-07-17T15:02:22.807Z,2.90
2018-07-17T15:04:51.363Z,3.83
2018-07-17T15:07:19.907Z,3.37
2018-07-17T15:09:48.314Z,3.77
2018-07-17T15:12:16.991Z,4.77
2018-07-17T15:14:45.467Z,2.73
2018-07-17T15:17:13.903Z,3.80
2018-07-17T15:19:42.360Z,4.80
2018-07-17T15:22:10.933Z,5.07
2018-07-17T15:24:39.377Z,2.47
2018-07-17T15:27:08.105Z,4.23
2018-07-17T15:29:36.562Z,3.27
2018-07-17T15:32:05.273Z,5.47
2018-07-17T15:34:33.726Z,3.03
2018-07-17T15:37:02.347Z,4.50
2018-07-17T15:39:30.925Z,3.10
2018-07-17T15:41:59.605Z,4.17
2018-07-17T15:44:28.093Z,2.67
2018-07-17T15:46:56.656Z,4.63
2018-07-17T15:49:25.450Z,4.27
2018-07-17T15:51:53.980Z,3.83
2018-07-17T15:54:22.413Z,4.17
2018-07-17T15:56:50.921Z,4.43
2018-07-17T15:59:19.380Z,3.70
2018-07-17T16:01:47.928Z,4.13
2018-07-17T16:04:16.460Z,10.53
2018-07-17T16:06:44.979Z,6.87
2018-07-17T16:09:13.765Z,7.83
2018-07-17T16:11:42.669Z,4.77
2018-07-17T16:14:11.655Z,4.60
2018-07-17T16:16:39.937Z,7.00
2018-07-17T16:19:08.435Z,5.67
2018-07-17T16:21:37.015Z,4.37
2018-07-17T16:24:05.639Z,4.57
2018-07-17T16:26:34.360Z,3.87
2018-07-17T16:29:03.166Z,4.93
2018-07-17T16:31:31.644Z,5.43
2018-07-17T16:34:00.270Z,5.73
2018-07-17T16:36:28.791Z,5.83
2018-07-17T16:38:57.246Z,6.33
2018-07-17T16:41:25.941Z,3.97
2018-07-17T16:43:54.793Z,4.00
2018-07-17T16:46:23.453Z,3.97
2018-07-17T16:48:52.240Z,9.60
2018-07-17T16:51:21.388Z,9.37
2018-07-17T16:53:50.500Z,5.17
2018-07-17T16:56:19.894Z,7.17
2018-07-17T16:58:48.908Z,7.70
2018-07-17T17:01:17.797Z,5.87
2018-07-17T17:03:46.542Z,5.83
2018-07-17T17:06:14.990Z,5.43
2018-07-17T17:08:43.455Z,4.57
2018-07-17T17:11:11.602Z,4.07
2018-07-17T17:13:40.419Z,9.77
2018-07-17T17:16:08.997Z,5.00
2018-07-17T17:18:37.824Z,3.87
2018-07-17T17:21:06.505Z,5.03
2018-07-17T17:23:35.038Z,5.37
2018-07-17T17:26:04.345Z,6.30
2018-07-17T17:28:32.636Z,4.80
2018-07-17T17:31:01.397Z,4.83
2018-07-17T17:33:30.022Z,8.40
2018-07-17T17:35:58.785Z,5.67
2018-07-17T17:38:27.324Z,9.17
2018-07-17T17:40:55.834Z,3.53
2018-07-17T17:43:24.388Z,6.93
2018-07-17T17:45:52.847Z,8.30
2018-07-17T17:48:21.450Z,3.70
2018-07-17T17:50:49.979Z,4.03
2018-07-17T17:53:18.434Z,3.60
2018-07-17T17:55:46.905Z,4.00
2018-07-17T17:58:15.509Z,3.23
2018-07-17T18:00:44.018Z,5.70
2018-07-17T18:03:12.700Z,3.63
2018-07-17T18:05:41.177Z,3.17
2018-07-17T18:08:09.680Z,4.17
2018-07-17T18:10:38.289Z,8.10
2018-07-17T18:13:06.961Z,5.57
2018-07-17T18:15:35.507Z,7.90
2018-07-17T18:18:04.258Z,7.37
2018-07-17T18:20:32.840Z,9.37
2018-07-17T18:23:01.052Z,6.37
2018-07-17T18:25:29.631Z,8.03
2018-07-17T18:27:58.236Z,9.37
2018-07-17T18:30:27.064Z,6.33
2018-07-17T18:32:55.629Z,5.87
2018-07-17T18:35:24.150Z,5.17
2018-07-17T18:37:52.697Z,5.40
2018-07-17T18:40:21.286Z,9.53
2018-07-17T18:42:49.751Z,9.97
2018-07-17T18:45:18.406Z,5.30
2018-07-17T18:47:46.959Z,6.43
2018-07-17T18:50:15.380Z,8.87
2018-07-17T18:52:43.968Z,9.00
2018-07-17T18:55:12.637Z,8.77
2018-07-17T18:57:41.300Z,5.23
2018-07-17T19:00:09.847Z,5.50
2018-07-17T19:02:38.297Z,6.67
2018-07-17T19:05:06.862Z,12.83
2018-07-17T19:07:35.361Z,9.13
2018-07-17T19:10:03.913Z,9.43
2018-07-17T19:12:32.573Z,8.47
2018-07-17T19:15:01.054Z,9.20
2018-07-17T19:17:29.607Z,9.30
2018-07-17T19:19:58.062Z,8.20
2018-07-17T19:22:26.601Z,7.57
2018-07-17T19:24:55.201Z,7.40
2018-07-17T19:27:24.030Z,10.30
2018-07-17T19:29:52.509Z,6.60
2018-07-17T19:32:21.095Z,7.43
2018-07-17T19:34:49.796Z,8.37
2018-07-17T19:37:18.429Z,6.60
2018-07-17T19:39:46.920Z,5.83
2018-07-17T19:42:15.479Z,7.37
2018-07-17T19:44:44.032Z,8.87
2018-07-17T19:47:12.615Z,6.73
2018-07-17T19:49:41.104Z,8.30
2018-07-17T19:52:09.710Z,7.10
2018-07-17T19:54:38.266Z,7.37
2018-07-17T19:57:06.823Z,7.27
2018-07-17T19:59:35.738Z,5.67
2018-07-17T20:02:04.221Z,4.43
2018-07-17T20:04:33.513Z,5.43
2018-07-17T20:07:02.028Z,5.93
2018-07-17T20:09:30.630Z,5.60
2018-07-17T20:11:59.190Z,7.63
2018-07-17T20:14:27.724Z,5.80
2018-07-17T20:16:56.198Z,8.23
2018-07-17T20:19:24.810Z,3.80
2018-07-17T20:21:53.384Z,6.07
2018-07-17T20:24:21.971Z,6.80
2018-07-17T20:26:50.494Z,6.00
2018-07-17T20:29:19.046Z,5.17
2018-07-17T20:31:47.841Z,6.50
2018-07-17T20:34:16.314Z,6.43
2018-07-17T20:36:45.102Z,4.30
2018-07-17T20:39:13.605Z,8.43
2018-07-17T20:41:42.708Z,5.50
2018-07-17T20:44:11.308Z,5.27
2018-07-17T20:46:40.032Z,4.47
2018-07-17T20:49:08.575Z,4.73
2018-07-17T20:51:37.108Z,4.00
2018-07-17T20:54:05.877Z,5.43
2018-07-17T20:56:34.361Z,7.13
2018-07-17T20:59:02.928Z,3.87
2018-07-17T21:01:31.428Z,4.13
2018-07-17T21:03:59.952Z,5.47
2018-07-17T21:06:28.473Z,2.80
2018-07-17T21:08:57.058Z,3.17
2018-07-17T21:11:25.784Z,4.30
2018-07-17T21:13:54.277Z,9.67
2018-07-17T21:16:22.969Z,2.40
2018-07-17T21:18:51.499Z,4.47
2018-07-17T21:21:20.093Z,3.50
2018-07-17T21:23:48.905Z,4.03
2018-07-17T21:26:17.787Z,4.83
2018-07-17T21:28:46.433Z,2.77
2018-07-17T21:31:15.088Z,6.63
2018-07-17T21:33:43.608Z,4.23
2018-07-17T21:36:12.193Z,4.10
2018-07-17T21:38:40.821Z,2.13
2018-07-17T21:41:09.354Z,5.47
2018-07-17T21:43:37.804Z,4.87
2018-07-17T21:46:06.505Z,6.20
2018-07-17T21:48:35.113Z,9.57
2018-07-17T21:51:03.591Z,5.93
2018-07-17T21:53:32.432Z,4.67
2018-07-17T21:56:01.096Z,6.90
2018-07-17T21:58:29.500Z,6.70
2018-07-17T22:00:58.555Z,5.57
2018-07-17T22:03:27.012Z,7.03
2018-07-17T22:05:55.577Z,3.20
2018-07-17T22:08:24.051Z,6.37
2018-07-17T22:10:52.622Z,3.67
2018-07-17T22:13:21.062Z,4.70
2018-07-17T22:15:49.518Z,3.17
2018-07-17T22:18:17.955Z,4.83
2018-07-17T22:20:46.474Z,5.20
2018-07-17T22:23:14.904Z,5.57
2018-07-17T22:25:43.381Z,4.50
2018-07-17T22:28:11.845Z,7.13
2018-07-17T22:30:40.281Z,4.17
2018-07-17T22:33:08.814Z,4.90
2018-07-17T22:35:37.558Z,7.80
2018-07-17T22:38:06.059Z,5.27
2018-07-17T22:40:34.513Z,4.33
2018-07-17T22:43:03.036Z,5.43
2018-07-17T22:45:31.448Z,5.93
2018-07-17T22:47:59.967Z,5.83
2018-07-17T22:50:28.570Z,5.90
2018-07-17T22:52:57.319Z,7.67
2018-07-17T22:55:25.977Z,4.63
2018-07-17T22:57:54.434Z,7.03
2018-07-17T23:00:23.044Z,4.73
2018-07-17T23:02:51.560Z,4.80
2018-07-17T23:05:20.032Z,5.13
2018-07-17T23:07:48.517Z,6.00
2018-07-17T23:10:17.000Z,6.37
2018-07-17T23:12:45.609Z,5.73
2018-07-17T23:15:14.240Z,8.47
2018-07-17T23:17:42.777Z,8.73
2018-07-17T23:20:11.382Z,4.97
2018-07-17T23:35:53.625Z,5.50
2018-07-17T23:38:22.115Z,4.83
2018-07-17T23:40:50.554Z,4.47
2018-07-17T23:43:19.274Z,6.13
2018-07-17T23:45:47.713Z,5.47
2018-07-17T23:48:16.140Z,6.73
2018-07-17T23:50:44.577Z,8.43
2018-07-17T23:53:13.024Z,5.00
2018-07-17T23:55:41.777Z,6.17
2018-07-17T23:58:10.277Z,5.40
